createdAt,value
2023-03-13T00:01:56.207Z,1.98
2023-03-13T00:04:22.948Z,2.65
2023-03-13T00:06:49.762Z,2.47
2023-03-13T00:09:17.175Z,1.80
2023-03-13T00:11:45.658Z,2.50
2023-03-13T00:14:12.359Z,1.83
2023-03-13T00:16:39.859Z,2.00
2023-03-13T00:19:08.472Z,2.03
2023-03-13T00:21:37.625Z,1.98
2023-03-13T00:24:05.035Z,2.55
2023-03-13T00:26:31.684Z,1.92
2023-03-13T00:28:58.599Z,2.00
2023-03-13T00:31:28.237Z,1.67
2023-03-13T00:33:58.681Z,2.38
2023-03-13T00:36:28.640Z,2.03
2023-03-13T00:38:57.196Z,2.17
2023-03-13T00:41:26.818Z,1.33
2023-03-13T00:43:54.846Z,1.85
2023-03-13T00:46:23.858Z,1.60
2023-03-13T00:48:51.851Z,2.47
2023-03-13T00:51:19.962Z,2.00
2023-03-13T00:53:48.521Z,1.25
2023-03-13T00:56:17.484Z,1.40
2023-03-13T00:58:45.979Z,2.47
2023-03-13T01:01:14.079Z,1.27
2023-03-13T01:03:42.484Z,0.88
2023-03-13T01:06:12.454Z,1.35
2023-03-13T01:08:39.654Z,1.70
2023-03-13T01:11:09.582Z,1.77
2023-03-13T01:13:37.747Z,1.42
2023-03-13T01:16:05.774Z,1.65
2023-03-13T01:18:34.330Z,1.33
2023-03-13T01:21:01.108Z,1.40
2023-03-13T01:23:28.635Z,1.38
2023-03-13T01:25:56.646Z,1.45
2023-03-13T01:28:24.625Z,1.60
2023-03-13T01:30:51.655Z,1.30
2023-03-13T01:33:18.823Z,1.58
2023-03-13T01:35:47.274Z,1.38
2023-03-13T01:38:14.636Z,2.10
2023-03-13T01:40:49.214Z,2.28
2023-03-13T01:43:27.433Z,2.42
2023-03-13T01:46:13.610Z,2.00
2023-03-13T01:48:54.485Z,1.75
2023-03-13T01:51:26.921Z,2.35
2023-03-13T01:54:04.117Z,2.13
2023-03-13T01:56:40.953Z,1.90
2023-03-13T01:59:10.446Z,2.42
2023-03-13T02:01:38.616Z,2.22
2023-03-13T02:04:06.731Z,1.88
2023-03-13T02:06:38.537Z,2.08
2023-03-13T02:09:16.034Z,2.30
2023-03-13T02:12:07.131Z,1.73
2023-03-13T02:14:37.172Z,1.45
2023-03-13T02:17:06.091Z,1.92
2023-03-13T02:19:41.615Z,1.60
2023-03-13T02:22:12.763Z,2.70
2023-03-13T02:24:55.157Z,1.42
2023-03-13T02:27:22.100Z,1.88
2023-03-13T02:29:49.570Z,1.70
2023-03-13T02:32:16.944Z,1.75
2023-03-13T02:34:46.204Z,1.35
2023-03-13T02:37:14.821Z,1.80
2023-03-13T02:39:45.851Z,1.52
2023-03-13T02:42:15.932Z,1.88
2023-03-13T02:44:44.386Z,1.50
2023-03-13T02:47:17.604Z,1.67
2023-03-13T02:49:44.449Z,1.40
2023-03-13T02:52:17.644Z,1.50
2023-03-13T02:54:49.503Z,1.63
2023-03-13T02:57:16.719Z,1.75
2023-03-13T02:59:43.522Z,1.75
2023-03-13T03:02:10.390Z,1.88
2023-03-13T03:04:37.822Z,2.03
2023-03-13T03:07:04.817Z,2.17
2023-03-13T03:09:32.988Z,1.45
2023-03-13T03:12:04.580Z,1.90
2023-03-13T03:14:32.542Z,1.60
2023-03-13T03:16:59.479Z,1.67
2023-03-13T03:19:27.317Z,2.30
2023-03-13T03:21:54.435Z,1.90
2023-03-13T03:24:21.269Z,1.90
2023-03-13T03:26:48.047Z,1.63
2023-03-13T03:29:24.796Z,2.55
2023-03-13T03:31:54.645Z,2.10
2023-03-13T03:34:21.927Z,1.40
2023-03-13T03:36:49.640Z,1.42
2023-03-13T03:39:16.618Z,1.67
2023-03-13T03:41:43.348Z,1.75
2023-03-13T03:44:11.512Z,1.60
2023-03-13T03:46:52.800Z,1.80
2023-03-13T03:49:20.179Z,1.80
2023-03-13T03:51:48.530Z,1.38
2023-03-13T03:54:16.653Z,1.92
2023-03-13T03:56:43.446Z,1.70
2023-03-13T03:59:11.158Z,1.75
2023-03-13T04:01:42.972Z,1.70
2023-03-13T04:04:09.715Z,1.83
2023-03-13T04:06:38.158Z,1.40
2023-03-13T04:09:07.414Z,1.67
2023-03-13T04:11:36.342Z,1.50
2023-03-13T04:14:04.527Z,1.75
2023-03-13T04:16:31.984Z,1.20
2023-03-13T04:18:59.932Z,1.50
2023-03-13T04:21:27.218Z,1.40
2023-03-13T04:24:14.248Z,1.25
2023-03-13T04:26:42.686Z,1.00
2023-03-13T04:29:09.632Z,1.40
2023-03-13T04:32:05.942Z,1.63
2023-03-13T04:34:32.855Z,1.25
2023-03-13T04:37:17.015Z,1.42
2023-03-13T04:39:58.978Z,1.15
2023-03-13T04:42:44.332Z,1.13
2023-03-13T04:45:40.448Z,1.50
2023-03-13T04:48:23.774Z,0.90
2023-03-13T04:50:57.120Z,1.13
2023-03-13T04:53:31.532Z,0.90
2023-03-13T04:56:05.453Z,1.30
2023-03-13T04:58:52.167Z,1.20
2023-03-13T05:01:27.907Z,1.20
2023-03-13T05:04:14.980Z,0.90
2023-03-13T05:07:00.297Z,1.27
2023-03-13T05:09:48.644Z,1.35
2023-03-13T05:12:21.467Z,1.10
2023-03-13T05:15:13.217Z,1.05
2023-03-13T05:17:56.686Z,1.40
2023-03-13T05:20:23.454Z,1.88
2023-03-13T05:22:58.288Z,0.80
2023-03-13T05:25:39.405Z,1.48
2023-03-13T05:28:44.687Z,1.45
2023-03-13T05:31:15.378Z,1.30
2023-03-13T05:34:02.563Z,1.20
2023-03-13T05:36:29.416Z,1.08
2023-03-13T05:39:19.509Z,1.77
2023-03-13T05:41:50.306Z,1.00
2023-03-13T05:44:26.664Z,1.65
2023-03-13T05:47:04.144Z,1.17
2023-03-13T05:49:31.234Z,1.20
2023-03-13T05:52:09.608Z,0.93
2023-03-13T05:54:49.322Z,1.70
2023-03-13T05:57:34.449Z,1.55
2023-03-13T06:00:17.070Z,1.70
2023-03-13T06:02:58.692Z,1.15
2023-03-13T06:05:33.077Z,1.35
2023-03-13T06:08:02.936Z,1.23
2023-03-13T06:10:29.704Z,2.03
2023-03-13T06:12:58.002Z,1.40
2023-03-13T06:15:30.795Z,1.48
2023-03-13T06:18:14.692Z,1.70
2023-03-13T06:20:42.634Z,1.30
2023-03-13T06:23:09.403Z,1.23
2023-03-13T06:25:36.254Z,1.88
2023-03-13T06:28:02.977Z,1.60
2023-03-13T06:30:29.734Z,1.60
2023-03-13T06:32:57.924Z,1.15
2023-03-13T06:35:24.833Z,2.58
2023-03-13T06:37:51.563Z,0.85
2023-03-13T06:40:18.421Z,1.50
2023-03-13T06:42:45.161Z,1.70
2023-03-13T06:45:12.155Z,1.42
2023-03-13T06:47:39.064Z,1.67
2023-03-13T06:50:06.184Z,1.10
2023-03-13T06:52:43.158Z,1.30
2023-03-13T06:55:11.995Z,1.00
2023-03-13T06:57:38.856Z,1.17
2023-03-13T07:00:07.200Z,2.05
2023-03-13T07:02:33.944Z,1.33
2023-03-13T07:05:05.637Z,1.50
2023-03-13T07:07:37.113Z,1.38
2023-03-13T07:10:04.801Z,1.85
2023-03-13T07:12:31.579Z,1.30
2023-03-13T07:14:58.278Z,1.00
2023-03-13T07:17:25.061Z,1.48
2023-03-13T07:19:51.915Z,1.40
2023-03-13T07:22:18.746Z,1.50
2023-03-13T07:24:45.598Z,1.23
2023-03-13T07:27:12.374Z,1.77
2023-03-13T07:29:39.245Z,1.52
2023-03-13T07:32:06.472Z,1.38
2023-03-13T07:34:33.363Z,1.30
2023-03-13T07:37:00.170Z,2.30
2023-03-13T07:39:26.852Z,1.60
2023-03-13T07:41:53.566Z,0.80
2023-03-13T07:44:20.552Z,2.10
2023-03-13T07:46:48.396Z,1.58
2023-03-13T07:49:15.104Z,1.13
2023-03-13T07:51:44.197Z,0.98
2023-03-13T07:54:11.961Z,1.40
2023-03-13T07:56:39.376Z,1.13
2023-03-13T07:59:06.967Z,1.45
2023-03-13T08:01:34.027Z,1.73
2023-03-13T08:04:01.259Z,1.27
2023-03-13T08:06:32.681Z,1.15
2023-03-13T08:09:00.887Z,1.48
2023-03-13T08:11:28.573Z,0.93
2023-03-13T08:13:56.793Z,0.98
2023-03-13T08:16:29.037Z,0.80
2023-03-13T08:18:57.663Z,1.40
2023-03-13T08:21:44.679Z,2.17
2023-03-13T08:24:12.904Z,1.42
2023-03-13T08:26:41.115Z,1.40
2023-03-13T08:29:14.648Z,1.20
2023-03-13T08:31:51.413Z,1.67
2023-03-13T08:34:19.579Z,1.48
2023-03-13T08:36:46.734Z,1.15
2023-03-13T08:39:18.942Z,1.50
2023-03-13T08:41:46.164Z,1.60
2023-03-13T08:44:15.773Z,2.33
2023-03-13T08:46:43.708Z,1.70
2023-03-13T08:49:11.266Z,1.30
2023-03-13T08:51:38.079Z,1.60
2023-03-13T08:54:05.124Z,1.50
2023-03-13T08:56:32.636Z,1.17
2023-03-13T08:59:01.635Z,1.40
2023-03-13T09:01:33.979Z,1.65
2023-03-13T09:04:04.016Z,1.45
2023-03-13T09:06:32.213Z,1.50
2023-03-13T09:08:59.166Z,1.67
2023-03-13T09:11:25.957Z,0.80
2023-03-13T09:13:53.163Z,1.33
2023-03-13T09:16:25.281Z,0.98
2023-03-13T09:18:52.901Z,1.10
2023-03-13T09:21:28.954Z,1.33
2023-03-13T09:23:55.903Z,1.38
2023-03-13T09:26:23.589Z,1.38
2023-03-13T09:28:52.092Z,1.27
2023-03-13T09:31:27.754Z,1.23
2023-03-13T09:33:54.834Z,0.65
2023-03-13T09:36:23.831Z,0.88
2023-03-13T09:38:52.479Z,0.80
2023-03-13T09:41:22.367Z,1.00
2023-03-13T09:44:02.790Z,1.25
2023-03-13T09:46:54.650Z,0.88
2023-03-13T09:49:45.245Z,0.80
2023-03-13T09:52:15.196Z,0.63
2023-03-13T09:55:31.314Z,0.98
2023-03-13T09:58:16.857Z,0.85
2023-03-13T10:00:48.762Z,0.90
2023-03-13T10:03:22.760Z,0.75
2023-03-13T10:06:17.753Z,0.88
2023-03-13T10:08:44.590Z,1.70
2023-03-13T10:11:21.554Z,0.80
2023-03-13T10:13:58.994Z,1.00
2023-03-13T10:16:31.616Z,1.17
2023-03-13T10:18:59.999Z,1.05
2023-03-13T10:21:33.986Z,1.00
2023-03-13T10:24:25.926Z,0.90
2023-03-13T10:26:52.990Z,1.05
2023-03-13T10:29:27.886Z,0.77
2023-03-13T10:31:58.948Z,1.08
2023-03-13T10:34:27.893Z,1.40
2023-03-13T10:37:00.448Z,1.25
2023-03-13T10:39:29.071Z,1.27
2023-03-13T10:42:10.252Z,0.73
2023-03-13T10:44:37.128Z,1.20
2023-03-13T10:47:04.916Z,0.68
2023-03-13T10:49:32.376Z,0.68
2023-03-13T10:52:04.188Z,1.20
2023-03-13T10:54:35.185Z,1.10
2023-03-13T10:57:10.190Z,0.98
2023-03-13T10:59:43.790Z,0.70
2023-03-13T11:04:49.347Z,0.55
2023-03-13T11:07:21.799Z,0.93
2023-03-13T11:09:59.247Z,1.08
2023-03-13T11:12:27.186Z,0.80
2023-03-13T11:14:58.526Z,0.68
2023-03-13T11:17:40.299Z,0.57
2023-03-13T11:20:24.907Z,0.55
2023-03-13T11:23:09.987Z,1.15
2023-03-13T11:25:49.342Z,0.98
2023-03-13T11:28:33.668Z,0.60
2023-03-13T11:31:09.878Z,0.70
2023-03-13T11:33:40.285Z,0.60
2023-03-13T11:36:42.372Z,0.90
2023-03-13T11:39:30.337Z,0.82
2023-03-13T11:42:08.019Z,0.55
2023-03-13T11:45:00.505Z,1.00
2023-03-13T11:47:30.180Z,0.88
2023-03-13T11:49:59.772Z,0.52
2023-03-13T11:53:10.034Z,0.60
2023-03-13T11:56:13.410Z,0.55
2023-03-13T11:59:13.004Z,0.47
2023-03-13T12:01:46.507Z,0.57
2023-03-13T12:07:06.446Z,0.50
2023-03-13T12:09:47.697Z,1.03
2023-03-13T12:12:42.779Z,0.50
2023-03-13T12:15:26.515Z,0.60
2023-03-13T12:18:27.326Z,0.88
2023-03-13T12:21:20.487Z,0.82
2023-03-13T12:24:04.784Z,0.45
2023-03-13T12:26:47.302Z,0.93
2023-03-13T12:29:34.243Z,0.70
2023-03-13T12:32:10.891Z,1.02
2023-03-13T12:34:58.897Z,1.45
2023-03-13T12:37:51.649Z,0.60
2023-03-13T12:40:57.958Z,0.90
2023-03-13T12:43:32.738Z,0.50
2023-03-13T12:45:59.823Z,0.63
2023-03-13T12:48:57.274Z,1.20
2023-03-13T12:52:12.149Z,0.80
2023-03-13T12:54:41.937Z,0.63
2023-03-13T12:57:33.199Z,0.77
2023-03-13T13:00:05.710Z,0.80
2023-03-13T13:02:32.649Z,0.60
2023-03-13T13:05:02.206Z,0.75
2023-03-13T13:07:32.387Z,0.50
2023-03-13T13:09:59.701Z,0.98
2023-03-13T13:12:26.881Z,1.58
2023-03-13T13:14:55.956Z,0.90
2023-03-13T13:17:44.929Z,2.47
2023-03-13T13:20:35.916Z,1.50
2023-03-13T13:23:21.612Z,0.80
2023-03-13T13:25:49.712Z,0.50
2023-03-13T13:28:19.131Z,0.70
2023-03-13T13:30:46.011Z,2.17
2023-03-13T13:33:18.922Z,1.73
2023-03-13T13:35:47.258Z,2.17
2023-03-13T13:38:20.226Z,0.88
2023-03-13T13:41:10.224Z,0.85
2023-03-13T13:43:42.677Z,0.63
2023-03-13T13:46:33.033Z,1.13
2023-03-13T13:49:05.784Z,0.63
2023-03-13T13:51:37.312Z,1.35
2023-03-13T13:54:17.830Z,1.80
2023-03-13T13:56:57.313Z,1.02
2023-03-13T13:59:40.920Z,0.85
2023-03-13T14:02:09.874Z,0.52
2023-03-13T14:05:00.090Z,0.28
2023-03-13T14:07:31.654Z,0.85
2023-03-13T14:10:07.320Z,0.88
2023-03-13T14:12:36.642Z,1.10
2023-03-13T14:15:09.577Z,1.65
2023-03-13T14:17:50.000Z,1.75
2023-03-13T14:20:23.195Z,1.98
2023-03-13T14:22:51.479Z,1.42
2023-03-13T14:25:18.187Z,2.35
2023-03-13T14:27:47.206Z,1.25
2023-03-13T14:30:16.455Z,1.13
2023-03-13T14:32:43.546Z,1.00
2023-03-13T14:35:13.675Z,0.98
2023-03-13T14:37:46.586Z,0.70
2023-03-13T14:40:39.754Z,0.85
2023-03-13T14:43:22.325Z,0.60
2023-03-13T14:45:49.491Z,1.40
2023-03-13T14:48:23.536Z,0.75
2023-03-13T14:50:59.649Z,1.50
2023-03-13T14:53:36.134Z,0.80
2023-03-13T14:56:19.036Z,0.70
2023-03-13T14:58:48.514Z,1.20
2023-03-13T15:01:35.649Z,1.88
2023-03-13T15:04:02.565Z,1.20
2023-03-13T15:06:29.437Z,1.73
2023-03-13T15:09:18.385Z,1.13
2023-03-13T15:12:01.374Z,1.08
2023-03-13T15:14:42.740Z,0.73
2023-03-13T15:17:15.001Z,1.00
2023-03-13T15:19:43.029Z,1.20
2023-03-13T15:22:13.875Z,1.02
2023-03-13T15:24:42.016Z,1.63
2023-03-13T15:27:29.456Z,1.10
2023-03-13T15:29:56.303Z,1.25
2023-03-13T15:32:30.284Z,1.20
2023-03-13T15:35:01.768Z,0.73
2023-03-13T15:37:29.645Z,1.17
2023-03-13T15:39:57.839Z,1.38
2023-03-13T15:42:25.434Z,0.63
2023-03-13T15:44:52.465Z,1.20
2023-03-13T15:47:21.453Z,1.42
2023-03-13T15:49:48.520Z,1.27
2023-03-13T15:52:19.340Z,0.80
2023-03-13T15:54:46.750Z,0.63
2023-03-13T15:57:22.801Z,0.70
2023-03-13T15:59:51.591Z,0.95
2023-03-13T16:02:22.719Z,0.60
2023-03-13T16:04:50.186Z,0.65
2023-03-13T16:07:22.382Z,0.75
2023-03-13T16:09:49.538Z,0.70
2023-03-13T16:12:16.368Z,1.02
2023-03-13T16:14:43.135Z,1.52
2023-03-13T16:17:15.084Z,0.80
2023-03-13T16:19:42.508Z,1.02
2023-03-13T16:22:09.412Z,1.05
2023-03-13T16:24:37.369Z,1.38
2023-03-13T16:27:16.383Z,0.95
2023-03-13T16:29:44.773Z,1.35
2023-03-13T16:32:14.572Z,0.93
2023-03-13T16:34:42.239Z,0.95
2023-03-13T16:37:17.744Z,0.68
2023-03-13T16:39:45.854Z,1.50
2023-03-13T16:42:13.291Z,1.85
2023-03-13T16:44:40.968Z,0.80
2023-03-13T16:47:27.896Z,1.35
2023-03-13T16:49:55.291Z,0.95
2023-03-13T16:52:22.064Z,0.90
2023-03-13T16:54:49.098Z,1.10
2023-03-13T16:57:19.558Z,0.80
2023-03-13T16:59:46.448Z,1.02
2023-03-13T17:02:16.814Z,1.25
2023-03-13T17:04:45.189Z,1.40
2023-03-13T17:07:26.597Z,1.20
2023-03-13T17:09:53.851Z,1.00
2023-03-13T17:12:21.072Z,2.15
2023-03-13T17:14:48.079Z,1.15
2023-03-13T17:17:18.245Z,1.00
2023-03-13T17:19:45.482Z,1.05
2023-03-13T17:22:14.645Z,1.60
2023-03-13T17:24:42.428Z,1.05
2023-03-13T17:27:18.303Z,0.70
2023-03-13T17:29:45.052Z,1.10
2023-03-13T17:32:13.582Z,1.52
2023-03-13T17:34:42.081Z,2.00
2023-03-13T17:37:17.520Z,1.85
2023-03-13T17:39:45.111Z,1.27
2023-03-13T17:42:12.214Z,1.77
2023-03-13T17:44:41.904Z,1.40
2023-03-13T17:47:14.866Z,1.55
2023-03-13T17:49:43.507Z,1.52
2023-03-13T17:52:15.850Z,1.20
2023-03-13T17:54:44.067Z,1.10
2023-03-13T17:57:22.109Z,1.10
2023-03-13T17:59:49.439Z,1.25
2023-03-13T18:02:17.439Z,1.95
2023-03-13T18:04:45.152Z,1.63
2023-03-13T18:07:27.739Z,1.35
2023-03-13T18:09:54.614Z,1.13
2023-03-13T18:12:21.568Z,1.55
2023-03-13T18:14:48.318Z,0.90
2023-03-13T18:17:20.936Z,1.95
2023-03-13T18:19:48.976Z,1.83
2023-03-13T18:22:25.250Z,1.27
2023-03-13T18:24:52.117Z,1.25
2023-03-13T18:27:21.404Z,2.22
2023-03-13T18:29:49.280Z,1.33
2023-03-13T18:32:18.105Z,1.10
2023-03-13T18:34:45.302Z,1.63
2023-03-13T18:37:26.470Z,1.92
2023-03-13T18:39:55.636Z,1.10
2023-03-13T18:42:23.903Z,1.15
2023-03-13T18:44:51.011Z,2.13
2023-03-13T18:47:20.795Z,2.00
2023-03-13T18:49:49.815Z,3.08
2023-03-13T18:52:17.397Z,2.50
2023-03-13T18:54:44.797Z,2.25
2023-03-13T18:57:19.677Z,1.77
2023-03-13T18:59:46.571Z,2.05
2023-03-13T19:02:16.031Z,1.98
2023-03-13T19:04:44.112Z,1.83
2023-03-13T19:07:30.575Z,2.47
2023-03-13T19:09:57.407Z,2.55
2023-03-13T19:12:24.101Z,2.47
2023-03-13T19:14:50.795Z,2.85
2023-03-13T19:17:29.361Z,2.83
2023-03-13T19:19:57.456Z,3.30
2023-03-13T19:22:25.102Z,2.65
2023-03-13T19:24:51.987Z,2.67
2023-03-13T19:27:18.743Z,2.15
2023-03-13T19:29:46.098Z,2.90
2023-03-13T19:32:18.266Z,2.88
2023-03-13T19:34:45.471Z,3.25
2023-03-13T19:37:14.721Z,2.88
2023-03-13T19:39:42.220Z,3.35
2023-03-13T19:42:08.961Z,2.67
2023-03-13T19:44:36.325Z,2.58
2023-03-13T19:47:04.709Z,2.95
2023-03-13T19:49:31.397Z,2.35
2023-03-13T19:51:58.541Z,3.45
2023-03-13T19:54:25.336Z,3.13
2023-03-13T19:56:53.415Z,2.22
2023-03-13T19:59:26.690Z,2.90
2023-03-13T20:01:55.672Z,3.17
2023-03-13T20:04:22.584Z,3.08
2023-03-13T20:06:49.295Z,2.88
2023-03-13T20:09:17.755Z,2.97
2023-03-13T20:11:44.962Z,1.75
2023-03-13T20:14:12.072Z,2.13
2023-03-13T20:16:38.952Z,1.80
2023-03-13T20:19:06.193Z,1.77
2023-03-13T20:21:35.787Z,2.10
2023-03-13T20:24:03.109Z,2.13
2023-03-13T20:26:30.330Z,1.25
2023-03-13T20:28:57.723Z,1.75
2023-03-13T20:31:28.034Z,1.35
2023-03-13T20:33:55.833Z,1.85
2023-03-13T20:36:23.100Z,1.23
2023-03-13T20:38:50.316Z,1.85
2023-03-13T20:41:21.010Z,1.05
2023-03-13T20:43:47.910Z,1.80
2023-03-13T20:46:14.796Z,1.27
2023-03-13T20:48:42.286Z,1.38
2023-03-13T20:51:09.496Z,1.23
2023-03-13T20:53:40.735Z,0.85
2023-03-13T20:56:09.093Z,1.10
2023-03-13T20:58:37.174Z,1.30
2023-03-13T21:01:06.226Z,2.15
2023-03-13T21:03:35.308Z,1.10
2023-03-13T21:06:14.092Z,1.52
2023-03-13T21:08:41.404Z,1.83
2023-03-13T21:11:16.586Z,1.38
2023-03-13T21:13:43.360Z,1.25
2023-03-13T21:16:10.443Z,1.55
2023-03-13T21:18:37.425Z,1.20
2023-03-13T21:21:09.761Z,0.90
2023-03-13T21:23:38.336Z,1.27
2023-03-13T21:26:05.718Z,0.88
2023-03-13T21:28:32.952Z,1.23
2023-03-13T21:31:11.109Z,1.13
2023-03-13T21:33:39.336Z,1.05
2023-03-13T21:36:06.396Z,0.75
2023-03-13T21:38:33.686Z,1.27
2023-03-13T21:41:00.618Z,0.77
2023-03-13T21:43:30.278Z,1.15
2023-03-13T21:45:59.218Z,1.10
2023-03-13T21:48:26.377Z,1.23
2023-03-13T21:50:53.777Z,1.40
2023-03-13T21:53:20.668Z,1.02
2023-03-13T21:55:51.379Z,1.92
2023-03-13T21:58:18.357Z,1.38
2023-03-13T22:00:45.431Z,1.52
2023-03-13T22:03:12.268Z,0.77
2023-03-13T22:05:43.570Z,1.15
2023-03-13T22:08:11.216Z,1.23
2023-03-13T22:10:38.717Z,0.93
2023-03-13T22:13:09.893Z,0.90
2023-03-13T22:15:36.531Z,1.05
2023-03-13T22:18:04.288Z,0.98
2023-03-13T22:20:31.263Z,1.15
2023-03-13T22:22:58.082Z,1.73
2023-03-13T22:25:24.908Z,1.20
2023-03-13T22:27:51.581Z,1.08
2023-03-13T22:30:18.499Z,0.73
2023-03-13T22:32:45.399Z,0.75
2023-03-13T22:35:12.380Z,0.88
2023-03-13T22:37:39.160Z,1.17
2023-03-13T22:40:06.684Z,0.60
2023-03-13T22:42:33.509Z,0.60
2023-03-13T22:45:00.231Z,1.05
2023-03-13T22:47:27.046Z,0.63
2023-03-13T22:49:53.748Z,1.20
2023-03-13T22:52:22.075Z,1.67
2023-03-13T22:54:48.947Z,1.00
2023-03-13T22:57:15.679Z,0.70
2023-03-13T22:59:42.427Z,1.20
2023-03-13T23:02:09.154Z,1.08
2023-03-13T23:04:36.003Z,1.02
2023-03-13T23:07:02.859Z,1.08
2023-03-13T23:09:29.702Z,0.88
2023-03-13T23:11:56.395Z,0.50
2023-03-13T23:14:23.109Z,0.45
2023-03-13T23:16:49.988Z,0.65
2023-03-13T23:19:16.792Z,0.75
2023-03-13T23:21:43.527Z,0.68
2023-03-13T23:24:10.236Z,0.75
2023-03-13T23:26:37.332Z,1.67
2023-03-13T23:29:04.680Z,0.88
2023-03-13T23:31:31.792Z,0.40
2023-03-13T23:33:59.089Z,0.88
2023-03-13T23:36:26.313Z,0.70
2023-03-13T23:38:54.247Z,1.90
2023-03-13T23:41:21.781Z,0.38
2023-03-13T23:43:48.555Z,0.82
2023-03-13T23:46:20.788Z,0.68
2023-03-13T23:48:47.640Z,0.85
2023-03-13T23:51:14.756Z,0.60
2023-03-13T23:53:42.944Z,0.82
2023-03-13T23:56:11.208Z,0.70
2023-03-13T23:58:38.152Z,0.63
